West Drayton, United Kingdom
Current Conditions -  °F | °C
As of 6:20 PM on Thursday 27 Nov 2014 (Local Time) from EGLL Reporting Station
Few Clouds Few Clouds  
Wind Chill: 50°   Ceiling: Unl
Heat Index: 50°   Visibility: 6mi
Dew Point: 48°   Wind: 7mph
Humidity: 94%   Direction: 90°E
Pressure: 29.56"   Gusts: NA
Location:  51.5°N, 0.47°W
Report Text: EGLL 271820Z 09006KT 9999 FEW011 10/09 Q1001
Loading
Personal Weather Stations






























Interactive Weather Map New forecast layout! Learn more

10-Day Weather Forecast

Advertisements
Track Severe Weather on mobile